Stiles, Wisconsin
Current Conditions -  °F | °C
As of 3:55 PM on Friday 28 Nov 2014 (Local Time) from KOCQ Reporting Station
Overcast Overcast  
Wind Chill: 21°   Ceiling: 1200
Heat Index: 21°   Visibility: 1.5mi
Dew Point: 21°   Wind: 0mph
Humidity: 99%   Direction: NA
Pressure: 29.99"   Gusts: NA
Location:  44.9552°N, 88.0505°W
Report Text: KOCQ 282155Z AUTO 00000KT 1 1/2SM BKN012 OVC022 M06/M06 A2999 RMK AO1 VIS 1V2 1/2 P0001 T10601062
Loading
Personal Weather Stations






























Interactive Weather Map New forecast layout! Learn more

10-Day Weather Forecast

Advertisements
Track Severe Weather on mobile